sensor_id;sensor_type;location;lat;lon;timestamp;pressure;altitude;pressure_sealevel;temperature;humidity
73316;BME280;61545;53.726;-0.444;2023-05-01T08:11:55;1011.5;;;14.2;100.0
73316;BME280;61545;53.726;-0.444;2023-05-01T08:16:55;1011.6;;;14.8;100.0
73316;BME280;61545;53.726;-0.444;2023-05-01T08:21:55;1011.6;;;15.4;100.0
73316;BME280;61545;53.726;-0.444;2023-05-01T08:26:55;1011.6;;;15.3;100.0
73316;BME280;61545;53.726;-0.444;2023-05-01T08:31:57;1011.7;;;15.4;100.0
73316;BME280;61545;53.726;-0.444;2023-05-01T08:36:55;1011.6;;;14.9;100.0
73316;BME280;61545;53.726;-0.444;2023-05-01T08:41:55;1011.5;;;16.3;100.0
73316;BME280;61545;53.726;-0.444;2023-05-01T08:47:00;1011.4;;;17.6;100.0
73316;BME280;61545;53.726;-0.444;2023-05-01T08:51:55;1011.4;;;18.4;100.0
73316;BME280;61545;53.726;-0.444;2023-05-01T08:56:55;1011.4;;;18.0;100.0
73316;BME280;61545;53.726;-0.444;2023-05-01T09:01:55;1011.4;;;17.5;100.0
73316;BME280;61545;53.726;-0.444;2023-05-01T09:06:55;1011.4;;;17.6;100.0
73316;BME280;61545;53.726;-0.444;2023-05-01T09:11:56;1011.5;;;18.0;100.0
73316;BME280;61545;53.726;-0.444;2023-05-01T09:16:55;1011.6;;;16.4;100.0
73316;BME280;61545;53.726;-0.444;2023-05-01T09:21:55;1011.6;;;15.7;100.0
73316;BME280;61545;53.726;-0.444;2023-05-01T09:26:55;1011.7;;;15.1;100.0
73316;BME280;61545;53.726;-0.444;2023-05-01T09:31:55;1011.7;;;16.1;100.0
73316;BME280;61545;53.726;-0.444;2023-05-01T09:36:55;1011.8;;;16.7;100.0
73316;BME280;61545;53.726;-0.444;2023-05-01T09:41:55;1011.8;;;16.4;100.0
73316;BME280;61545;53.726;-0.444;2023-05-01T09:46:55;1011.9;;;unknown;100.0
73316;BME280;61545;53.726;-0.444;2023-05-01T09:52:09;1012.0;;;15.7;100.0
73316;BME280;61545;53.726;-0.444;2023-05-01T09:56:55;1012.1;;;15.5;100.0
73316;BME280;61545;53.726;-0.444;2023-05-01T10:01:55;1012.0;;;15.8;100.0
73316;BME280;61545;53.726;-0.444;2023-05-01T10:06:55;1012.1;;;16.3;100.0
73316;BME280;61545;53.726;-0.444;2023-05-01T10:11:55;1012.1;;;15.6;100.0
73316;BME280;61545;53.726;-0.444;2023-05-01T10:16:55;1012.1;;;16.5;100.0
73316;BME280;61545;53.726;-0.444;2023-05-01T10:21:55;1012.0;;;16.9;100.0
73316;BME280;61545;53.726;-0.444;2023-05-01T10:26:55;1012.1;;;17.5;100.0
73316;BME280;61545;53.726;-0.444;2023-05-01T10:31:55;1012.0;;;17.7;100.0
73316;BME280;61545;53.726;-0.444;2023-05-01T10:36:57;1012.0;;;16.6;100.0
73316;BME280;61545;53.726;-0.444;2023-05-01T10:42:02;1012.2;;;15.9;100.0
73316;BME280;61545;53.726;-0.444;2023-05-01T10:46:55;1012.2;;;15.7;100.0
73316;BME280;61545;53.726;-0.444;2023-05-01T10:51:57;1012.3;;;15.5;100.0
73316;BME280;61545;53.726;-0.444;2023-05-01T10:56:56;1012.4;;;15.2;100.0
73316;BME280;61545;53.726;-0.444;2023-05-01T11:01:55;1012.5;;;15.4;100.0
73316;BME280;61545;53.726;-0.444;2023-05-01T11:07:27;1012.5;;;15.1;100.0
73316;BME280;61545;53.726;-0.444;2023-05-01T11:11:55;1012.5;;;15.1;100.0
73316;BME280;61545;53.726;-0.444;2023-05-01T11:16:55;1012.5;;;15.2;100.0
73316;BME280;61545;53.726;-0.444;2023-05-01T11:21:55;1012.5;;;15.3;100.0
73316;BME280;61545;53.726;-0.444;2023-05-01T11:26:55;1012.4;;;15.6;100.0
73316;BME280;61545;53.726;-0.444;2023-05-01T11:31:55;1012.5;;;16.3;100.0
73316;BME280;61545;53.726;-0.444;2023-05-01T11:36:55;1012.5;;;16.5;100.0
73316;BME280;61545;53.726;-0.444;2023-05-01T11:42:05;1012.4;;;unknown;100.0
73316;BME280;61545;53.726;-0.444;2023-05-01T11:46:55;1012.4;;;17.9;100.0
73316;BME280;61545;53.726;-0.444;2023-05-01T11:51:55;1012.4;;;17.3;100.0
73316;BME280;61545;53.726;-0.444;2023-05-01T11:56:57;1012.5;;;16.4;100.0
73316;BME280;61545;53.726;-0.444;2023-05-01T12:01:55;1012.5;;;16.0;100.0
73316;BME280;61545;53.726;-0.444;2023-05-01T12:06:55;1012.6;;;16.0;100.0
73316;BME280;61545;53.726;-0.444;2023-05-01T12:11:55;1012.5;;;16.0;100.0
73316;BME280;61545;53.726;-0.444;2023-05-01T12:16:55;1012.6;;;15.9;100.0
73316;BME280;61545;53.726;-0.444;2023-05-01T12:22:10;1012.6;;;15.4;100.0
73316;BME280;61545;53.726;-0.444;2023-05-01T12:26:58;1012.6;;;unknown;100.0
73316;BME280;61545;53.726;-0.444;2023-05-01T12:31:55;1012.6;;;unknown;100.0
73316;BME280;61545;53.726;-0.444;2023-05-01T12:36:55;1012.6;;;15.2;100.0
73316;BME280;61545;53.726;-0.444;2023-05-01T12:41:55;1012.6;;;unknown;100.0
73316;BME280;61545;53.726;-0.444;2023-05-01T12:46:57;1012.5;;;17.1;100.0
73316;BME280;61545;53.726;-0.444;2023-05-01T12:51:57;1012.5;;;16.9;100.0
73316;BME280;61545;53.726;-0.444;2023-05-01T12:57:04;1012.5;;;16.9;100.0
73316;BME280;61545;53.726;-0.444;2023-05-01T13:01:56;1012.6;;;16.6;100.0
73316;BME280;61545;53.726;-0.444;2023-05-01T13:06:55;1012.6;;;17.4;100.0
73316;BME280;61545;53.726;-0.444;2023-05-01T13:11:56;1012.5;;;17.2;100.0
73316;BME280;61545;53.726;-0.444;2023-05-01T13:16:55;1012.5;;;16.8;100.0
73316;BME280;61545;53.726;-0.444;2023-05-01T13:21:55;1012.6;;;16.8;100.0
73316;BME280;61545;53.726;-0.444;2023-05-01T13:26:55;1012.7;;;17.6;100.0
73316;BME280;61545;53.726;-0.444;2023-05-01T13:31:55;1012.7;;;17.5;100.0
73316;BME280;61545;53.726;-0.444;2023-05-01T13:36:55;1012.7;;;17.4;100.0
73316;BME280;61545;53.726;-0.444;2023-05-01T13:41:55;1012.7;;;17.2;100.0
73316;BME280;61545;53.726;-0.444;2023-05-01T13:46:55;1012.7;;;17.6;100.0
73316;BME280;61545;53.726;-0.444;2023-05-01T13:51:55;1012.7;;;17.5;100.0
73316;BME280;61545;53.726;-0.444;2023-05-01T13:56:55;1012.8;;;16.8;100.0
73316;BME280;61545;53.726;-0.444;2023-05-01T14:01:55;1012.8;;;16.1;100.0
73316;BME280;61545;53.726;-0.444;2023-05-01T14:06:55;1012.9;;;16.2;100.0
73316;BME280;61545;53.726;-0.444;2023-05-01T14:11:55;1012.9;;;16.2;100.0
73316;BME280;61545;53.726;-0.444;2023-05-01T14:16:55;1012.8;;;16.9;100.0
73316;BME280;61545;53.726;-0.444;2023-05-01T14:21:55;1012.7;;;17.5;100.0
73316;BME280;61545;53.726;-0.444;2023-05-01T14:26:55;1012.8;;;17.1;100.0
73316;BME280;61545;53.726;-0.444;2023-05-01T14:31:56;1012.9;;;16.7;100.0
73316;BME280;61545;53.726;-0.444;2023-05-01T14:36:55;1012.9;;;16.6;100.0
73316;BME280;61545;53.726;-0.444;2023-05-01T14:41:55;1013.0;;;16.7;100.0
73316;BME280;61545;53.726;-0.444;2023-05-01T14:46:55;1013.0;;;17.0;100.0
73316;BME280;61545;53.726;-0.444;2023-05-01T14:51:55;1012.9;;;17.1;100.0
73316;BME280;61545;53.726;-0.444;2023-05-01T14:56:55;1013.0;;;16.9;100.0
73316;BME280;61545;53.726;-0.444;2023-05-01T15:01:55;1013.0;;;16.7;100.0
73316;BME280;61545;53.726;-0.444;2023-05-01T15:06:55;1013.0;;;16.5;100.0
73316;BME280;61545;53.726;-0.444;2023-05-01T15:11:55;1013.0;;;16.4;100.0
73316;BME280;61545;53.726;-0.444;2023-05-01T15:16:55;1013.1;;;16.2;100.0
73316;BME280;61545;53.726;-0.444;2023-05-01T15:21:55;1013.2;;;15.9;100.0
73316;BME280;61545;53.726;-0.444;2023-05-01T15:26:55;1013.2;;;15.9;100.0
73316;BME280;61545;53.726;-0.444;2023-05-01T15:31:55;1013.3;;;16.0;100.0
73316;BME280;61545;53.726;-0.444;2023-05-01T15:36:55;1013.3;;;15.9;100.0
73316;BME280;61545;53.726;-0.444;2023-05-01T15:41:55;1013.3;;;16.0;100.0
73316;BME280;61545;53.726;-0.444;2023-05-01T15:46:55;1013.4;;;15.6;100.0
73316;BME280;61545;53.726;-0.444;2023-05-01T15:51:55;1013.5;;;15.4;100.0
73316;BME280;61545;53.726;-0.444;2023-05-01T15:56:55;1013.5;;;15.5;100.0
73316;BME280;61545;53.726;-0.444;2023-05-01T16:01:55;1013.7;;;15.0;100.0
73316;BME280;61545;53.726;-0.444;2023-05-01T16:06:55;1013.8;;;14.7;100.0
73316;BME280;61545;53.726;-0.444;2023-05-01T16:11:55;1014.0;;;14.6;100.0
73316;BME280;61545;53.726;-0.444;2023-05-01T16:16:55;1014.1;;;14.5;100.0
73316;BME280;61545;53.726;-0.444;2023-05-01T16:21:55;1014.5;;;14.4;100.0
73316;BME280;61545;53.726;-0.444;2023-05-01T16:26:55;1014.5;;;14.3;100.0
73316;BME280;61545;53.726;-0.444;2023-05-01T16:31:55;1014.6;;;14.1;100.0
73316;BME280;61545;53.726;-0.444;2023-05-01T16:36:55;1014.5;;;14.1;100.0
73316;BME280;61545;53.726;-0.444;2023-05-01T16:41:55;1014.7;;;14.2;100.0
73316;BME280;61545;53.726;-0.444;2023-05-01T16:46:56;1014.7;;;14.0;100.0
73316;BME280;61545;53.726;-0.444;2023-05-01T16:51:55;1014.8;;;13.9;100.0
73316;BME280;61545;53.726;-0.444;2023-05-01T16:56:55;1014.9;;;13.9;100.0
73316;BME280;61545;53.726;-0.444;2023-05-01T17:01:55;1014.9;;;13.7;100.0
73316;BME280;61545;53.726;-0.444;2023-05-01T17:06:55;1014.9;;;13.8;100.0
73316;BME280;61545;53.726;-0.444;2023-05-01T17:11:55;1015.0;;;13.7;100.0
73316;BME280;61545;53.726;-0.444;2023-05-01T17:16:55;1015.1;;;13.3;100.0
73316;BME280;61545;53.726;-0.444;2023-05-01T17:21:55;1015.1;;;13.3;100.0
73316;BME280;61545;53.726;-0.444;2023-05-01T17:26:55;1015.1;;;13.3;100.0
73316;BME280;61545;53.726;-0.444;2023-05-01T17:31:55;1015.2;;;13.2;100.0
73316;BME280;61545;53.726;-0.444;2023-05-01T17:36:55;1015.2;;;13.1;100.0
73316;BME280;61545;53.726;-0.444;2023-05-01T17:41:55;1015.3;;;12.8;100.0
73316;BME280;61545;53.726;-0.444;2023-05-01T17:46:55;1015.5;;;12.7;100.0
73316;BME280;61545;53.726;-0.444;2023-05-01T17:51:55;1015.5;;;12.9;100.0
73316;BME280;61545;53.726;-0.444;2023-05-01T17:56:55;1015.6;;;12.7;100.0
73316;BME280;61545;53.726;-0.444;2023-05-01T18:01:55;1015.7;;;12.6;100.0
73316;BME280;61545;53.726;-0.444;2023-05-01T18:06:55;1015.8;;;12.5;100.0
73316;BME280;61545;53.726;-0.444;2023-05-01T18:11:55;1015.9;;;12.2;100.0
73316;BME280;61545;53.726;-0.444;2023-05-01T18:16:55;1016.0;;;12.1;100.0
73316;BME280;61545;53.726;-0.444;2023-05-01T18:21:55;1016.1;;;12.2;100.0
73316;BME280;61545;53.726;-0.444;2023-05-01T18:26:55;1016.1;;;12.0;100.0
73316;BME280;61545;53.726;-0.444;2023-05-01T18:31:55;1016.1;;;11.9;100.0
73316;BME280;61545;53.726;-0.444;2023-05-01T18:36:55;1016.1;;;11.8;100.0
73316;BME280;61545;53.726;-0.444;2023-05-01T18:41:55;1016.3;;;12.0;100.0
73316;BME280;61545;53.726;-0.444;2023-05-01T18:46:55;1016.3;;;11.9;100.0
73316;BME280;61545;53.726;-0.444;2023-05-01T18:51:55;1016.4;;;11.9;100.0
73316;BME280;61545;53.726;-0.444;2023-05-01T18:56:55;1016.5;;;11.8;100.0
73316;BME280;61545;53.726;-0.444;2023-05-01T19:01:55;1016.6;;;11.4;100.0
73316;BME280;61545;53.726;-0.444;2023-05-01T19:06:55;1016.7;;;11.4;100.0
73316;BME280;61545;53.726;-0.444;2023-05-01T19:11:55;1016.9;;;11.4;100.0
73316;BME280;61545;53.726;-0.444;2023-05-01T19:16:55;1016.9;;;11.4;100.0
73316;BME280;61545;53.726;-0.444;2023-05-01T19:21:55;1016.9;;;11.1;100.0
73316;BME280;61545;53.726;-0.444;2023-05-01T19:26:55;1017.1;;;11.0;100.0
73316;BME280;61545;53.726;-0.444;2023-05-01T19:31:55;1017.2;;;10.9;100.0
73316;BME280;61545;53.726;-0.444;2023-05-01T19:36:55;1017.3;;;10.9;100.0
73316;BME280;61545;53.726;-0.444;2023-05-01T19:41:55;1017.4;;;10.8;100.0
73316;BME280;61545;53.726;-0.444;2023-05-01T19:46:55;1017.4;;;10.8;100.0
73316;BME280;61545;53.726;-0.444;2023-05-01T19:51:55;1017.6;;;10.8;100.0
73316;BME280;61545;53.726;-0.444;2023-05-01T19:56:55;1017.6;;;10.8;100.0
73316;BME280;61545;53.726;-0.444;2023-05-01T20:01:55;1017.8;;;10.7;100.0
73316;BME280;61545;53.726;-0.444;2023-05-01T20:06:55;1017.9;;;10.7;100.0
73316;BME280;61545;53.726;-0.444;2023-05-01T20:11:55;1017.9;;;10.7;100.0
73316;BME280;61545;53.726;-0.444;2023-05-01T20:16:55;1018.0;;;10.6;100.0
73316;BME280;61545;53.726;-0.444;2023-05-01T20:21:55;1018.0;;;10.5;100.0
73316;BME280;61545;53.726;-0.444;2023-05-01T20:26:55;1018.0;;;10.4;100.0
73316;BME280;61545;53.726;-0.444;2023-05-01T20:31:57;1018.1;;;10.4;100.0
73316;BME280;61545;53.726;-0.444;2023-05-01T20:36:55;1018.2;;;10.4;100.0
73316;BME280;61545;53.726;-0.444;2023-05-01T20:41:55;1018.3;;;10.4;100.0
73316;BME280;61545;53.726;-0.444;2023-05-01T20:46:55;1018.4;;;10.4;100.0
73316;BME280;61545;53.726;-0.444;2023-05-01T20:51:55;1018.5;;;10.3;100.0
73316;BME280;61545;53.726;-0.444;2023-05-01T20:56:55;1018.7;;;10.2;100.0
73316;BME280;61545;53.726;-0.444;2023-05-01T21:01:55;1018.8;;;10.4;100.0
73316;BME280;61545;53.726;-0.444;2023-05-01T21:06:56;1018.9;;;10.3;100.0
73316;BME280;61545;53.726;-0.444;2023-05-01T21:11:55;1019.0;;;10.3;100.0
73316;BME280;61545;53.726;-0.444;2023-05-01T21:16:55;1019.1;;;10.1;100.0
73316;BME280;61545;53.726;-0.444;2023-05-01T21:21:55;1019.2;;;10.2;100.0
73316;BME280;61545;53.726;-0.444;2023-05-01T21:26:55;1019.3;;;10.1;100.0
73316;BME280;61545;53.726;-0.444;2023-05-01T21:31:55;1019.3;;;9.9;100.0
73316;BME280;61545;53.726;-0.444;2023-05-01T21:36:55;1019.3;;;10.0;100.0
73316;BME280;61545;53.726;-0.444;2023-05-01T21:41:55;1019.4;;;10.0;100.0
73316;BME280;61545;53.726;-0.444;2023-05-01T21:46:55;1019.4;;;9.7;100.0
73316;BME280;61545;53.726;-0.444;2023-05-01T21:51:57;1019.5;;;9.8;100.0
73316;BME280;61545;53.726;-0.444;2023-05-01T21:56:57;1019.5;;;9.8;100.0
73316;BME280;61545;53.726;-0.444;2023-05-01T22:01:55;1019.7;;;9.7;100.0
73316;BME280;61545;53.726;-0.444;2023-05-01T22:06:55;1019.7;;;9.8;100.0
73316;BME280;61545;53.726;-0.444;2023-05-01T22:11:55;1019.7;;;9.7;100.0
73316;BME280;61545;53.726;-0.444;2023-05-01T22:16:55;1019.7;;;9.7;100.0
73316;BME280;61545;53.726;-0.444;2023-05-01T22:21:55;1019.8;;;9.8;100.0
73316;BME280;61545;53.726;-0.444;2023-05-01T22:26:55;1019.9;;;9.5;100.0
73316;BME280;61545;53.726;-0.444;2023-05-01T22:31:55;1019.9;;;9.5;100.0
73316;BME280;61545;53.726;-0.444;2023-05-01T22:36:55;1019.9;;;9.7;100.0
73316;BME280;61545;53.726;-0.444;2023-05-01T22:41:55;1019.9;;;9.5;100.0
73316;BME280;61545;53.726;-0.444;2023-05-01T22:46:55;1019.9;;;9.4;100.0
73316;BME280;61545;53.726;-0.444;2023-05-01T22:51:55;1020.0;;;9.4;100.0
73316;BME280;61545;53.726;-0.444;2023-05-01T22:56:55;1020.0;;;9.4;100.0
73316;BME280;61545;53.726;-0.444;2023-05-01T23:01:55;1020.1;;;9.3;100.0
73316;BME280;61545;53.726;-0.444;2023-05-01T23:06:55;1020.1;;;9.4;100.0
73316;BME280;61545;53.726;-0.444;2023-05-01T23:11:55;1020.1;;;9.2;100.0
73316;BME280;61545;53.726;-0.444;2023-05-01T23:16:55;1020.1;;;unknown;100.0
73316;BME280;61545;53.726;-0.444;2023-05-01T23:22:04;1020.1;;;9.3;100.0
73316;BME280;61545;53.726;-0.444;2023-05-01T23:26:55;1020.2;;;9.2;100.0
73316;BME280;61545;53.726;-0.444;2023-05-01T23:31:55;1020.2;;;9.4;100.0
73316;BME280;61545;53.726;-0.444;2023-05-01T23:36:55;1020.2;;;unknown;100.0
73316;BME280;61545;53.726;-0.444;2023-05-01T23:41:55;1020.3;;;9.5;100.0
73316;BME280;61545;53.726;-0.444;2023-05-01T23:46:55;1020.4;;;9.3;100.0
73316;BME280;61545;53.726;-0.444;2023-05-01T23:51:55;1020.4;;;9.4;100.0
73316;BME280;61545;53.726;-0.444;2023-05-01T23:56:55;1020.4;;;9.3;100.0
